createdAt,value
2022-10-04T00:00:41.385Z,1.60
2022-10-04T00:03:35.919Z,1.60
2022-10-04T00:06:04.978Z,2.40
2022-10-04T00:08:42.644Z,2.60
2022-10-04T00:11:19.617Z,1.90
2022-10-04T00:13:51.286Z,1.20
2022-10-04T00:16:33.059Z,2.00
2022-10-04T00:19:16.360Z,1.20
2022-10-04T00:21:56.373Z,1.60
2022-10-04T00:24:30.361Z,1.40
2022-10-04T00:27:20.867Z,1.60
2022-10-04T00:30:15.096Z,1.50
2022-10-04T00:32:42.871Z,1.50
2022-10-04T00:35:26.271Z,1.50
2022-10-04T00:38:08.879Z,1.60
2022-10-04T00:40:50.514Z,1.50
2022-10-04T00:43:30.168Z,1.60
2022-10-04T00:46:08.523Z,1.50
2022-10-04T00:48:38.586Z,1.50
2022-10-04T00:51:33.203Z,1.40
2022-10-04T00:54:06.706Z,1.20
2022-10-04T00:56:48.691Z,1.40
2022-10-04T00:59:36.721Z,1.80
2022-10-04T01:02:26.515Z,1.30
2022-10-04T01:05:00.769Z,1.60
2022-10-04T01:07:45.217Z,1.20
2022-10-04T01:10:22.592Z,1.60
2022-10-04T01:13:05.776Z,1.30
2022-10-04T01:15:51.957Z,1.20
2022-10-04T01:18:20.330Z,1.40
2022-10-04T01:20:49.965Z,1.30
2022-10-04T01:23:44.400Z,1.60
2022-10-04T01:26:32.465Z,1.40
2022-10-04T01:29:11.039Z,1.40
2022-10-04T01:31:42.869Z,1.60
2022-10-04T01:34:20.196Z,1.40
2022-10-04T01:36:51.472Z,1.10
2022-10-04T01:39:20.731Z,1.00
2022-10-04T01:42:05.322Z,1.00
2022-10-04T01:44:39.682Z,1.20
2022-10-04T01:47:36.447Z,1.80
2022-10-04T01:50:15.715Z,1.50
2022-10-04T01:53:12.031Z,1.50
2022-10-04T01:55:41.903Z,1.10
2022-10-04T01:58:15.057Z,1.10
2022-10-04T02:00:47.975Z,1.40
2022-10-04T02:03:20.289Z,2.50
2022-10-04T02:05:52.362Z,1.60
2022-10-04T02:08:25.967Z,1.80
2022-10-04T02:10:54.985Z,1.10
2022-10-04T02:13:24.358Z,1.50
2022-10-04T02:15:52.255Z,1.70
2022-10-04T02:18:21.389Z,1.20
2022-10-04T02:20:50.307Z,1.10
2022-10-04T02:23:22.914Z,1.70
2022-10-04T02:25:51.058Z,1.60
2022-10-04T02:28:18.969Z,1.40
2022-10-04T02:31:10.725Z,1.20
2022-10-04T02:33:40.695Z,1.60
2022-10-04T02:36:09.707Z,1.00
2022-10-04T02:39:00.805Z,1.00
2022-10-04T02:41:35.889Z,1.30
2022-10-04T02:44:17.905Z,1.40
2022-10-04T02:46:54.092Z,1.30
2022-10-04T02:49:24.918Z,1.80
2022-10-04T02:51:58.122Z,2.10
2022-10-04T02:54:45.141Z,1.80
2022-10-04T02:57:19.458Z,1.70
2022-10-04T02:59:47.800Z,1.20
2022-10-04T03:02:29.687Z,1.60
2022-10-04T03:05:06.162Z,1.10
2022-10-04T03:07:35.483Z,1.40
2022-10-04T03:10:07.235Z,1.00
2022-10-04T03:12:35.342Z,1.10
2022-10-04T03:15:03.695Z,1.50
2022-10-04T03:17:31.552Z,1.00
2022-10-04T03:20:00.127Z,1.70
2022-10-04T03:22:27.955Z,1.10
2022-10-04T03:24:57.113Z,1.50
2022-10-04T03:27:43.719Z,2.10
2022-10-04T03:30:15.089Z,2.50
2022-10-04T03:32:43.514Z,2.00
2022-10-04T03:35:28.468Z,1.90
2022-10-04T03:37:58.158Z,1.90
2022-10-04T03:40:30.122Z,1.60
2022-10-04T03:42:59.556Z,1.20
2022-10-04T03:45:28.434Z,1.70
2022-10-04T03:47:58.652Z,2.00
2022-10-04T03:50:29.038Z,1.30
2022-10-04T03:53:09.803Z,1.60
2022-10-04T03:55:40.615Z,3.70
2022-10-04T03:58:12.341Z,2.50
2022-10-04T04:00:43.993Z,2.30
2022-10-04T04:03:17.027Z,2.20
2022-10-04T04:05:52.937Z,2.20
2022-10-04T04:08:26.885Z,2.20
2022-10-04T04:10:56.516Z,1.60
2022-10-04T04:13:27.787Z,2.20
2022-10-04T04:15:56.887Z,2.00
2022-10-04T04:18:27.692Z,1.60
2022-10-04T04:20:59.222Z,1.00
2022-10-04T04:23:33.599Z,1.50
2022-10-04T04:26:35.554Z,1.50
2022-10-04T04:29:22.487Z,1.70
2022-10-04T04:31:55.163Z,1.90
2022-10-04T04:34:27.728Z,1.30
2022-10-04T04:37:00.746Z,1.40
2022-10-04T04:39:44.961Z,1.40
2022-10-04T04:42:19.164Z,1.00
2022-10-04T04:45:12.130Z,1.80
2022-10-04T04:47:51.302Z,1.80
2022-10-04T04:50:25.098Z,1.50
2022-10-04T04:53:05.172Z,1.60
2022-10-04T04:56:01.825Z,2.10
2022-10-04T04:58:27.914Z,1.50
2022-10-04T05:01:04.564Z,2.00
2022-10-04T05:03:34.238Z,1.90
2022-10-04T05:06:04.918Z,1.50
2022-10-04T05:08:38.760Z,2.10
2022-10-04T05:11:08.873Z,1.50
2022-10-04T05:13:52.008Z,1.20
2022-10-04T05:16:27.535Z,1.70
2022-10-04T05:19:08.917Z,1.40
2022-10-04T05:21:40.768Z,1.80
2022-10-04T05:24:18.196Z,1.30
2022-10-04T05:26:50.435Z,1.20
2022-10-04T05:32:15.974Z,1.50
2022-10-04T05:34:47.143Z,1.80
2022-10-04T05:37:24.206Z,1.80
2022-10-04T05:40:14.075Z,2.50
2022-10-04T05:42:46.453Z,2.90
2022-10-04T05:45:14.258Z,3.20
2022-10-04T05:47:42.751Z,2.60
2022-10-04T05:50:41.668Z,2.10
2022-10-04T05:53:14.766Z,1.80
2022-10-04T05:56:23.954Z,1.90
2022-10-04T05:59:22.960Z,1.40
2022-10-04T06:01:59.807Z,1.70
2022-10-04T06:04:56.447Z,1.50
2022-10-04T06:07:37.744Z,2.00
2022-10-04T06:10:19.333Z,1.30
2022-10-04T06:12:55.524Z,1.60
2022-10-04T06:15:57.337Z,2.10
2022-10-04T06:18:49.976Z,1.60
2022-10-04T06:21:29.740Z,2.30
2022-10-04T06:24:11.717Z,1.50
2022-10-04T06:29:38.962Z,1.50
2022-10-04T06:32:54.167Z,1.60
2022-10-04T06:36:24.570Z,2.10
2022-10-04T06:39:21.392Z,1.70
2022-10-04T06:42:15.204Z,1.90
2022-10-04T06:45:31.740Z,3.00
2022-10-04T06:48:38.798Z,2.60
2022-10-04T06:58:39.620Z,1.70
2022-10-04T07:01:27.349Z,1.70
2022-10-04T07:05:06.462Z,1.60
2022-10-04T07:08:11.267Z,1.80
2022-10-04T07:19:54.000Z,1.20
2022-10-04T07:26:41.613Z,1.70
2022-10-04T07:35:48.625Z,1.80
2022-10-04T07:39:14.185Z,1.70
2022-10-04T07:43:00.998Z,1.70
2022-10-04T07:47:24.023Z,2.00
2022-10-04T08:44:15.666Z,1.60
2022-10-04T08:55:33.163Z,1.20
2022-10-04T09:00:59.952Z,1.30
2022-10-04T09:04:16.026Z,1.40
2022-10-04T09:08:31.410Z,1.40
2022-10-04T09:11:42.934Z,1.90
2022-10-04T09:14:57.577Z,1.30
2022-10-04T09:18:12.236Z,1.70
2022-10-04T09:22:20.215Z,1.10
2022-10-04T09:26:15.950Z,2.20
2022-10-04T09:29:34.951Z,1.60
2022-10-04T09:36:36.893Z,1.40
2022-10-04T09:40:05.603Z,1.30
2022-10-04T09:43:18.517Z,1.50
2022-10-04T09:51:21.159Z,1.40
2022-10-04T09:54:26.527Z,1.50
2022-10-04T09:57:53.613Z,1.40
2022-10-04T10:01:53.067Z,1.60
2022-10-04T10:06:10.109Z,1.10
2022-10-04T10:19:18.544Z,1.40
2022-10-04T10:29:52.982Z,1.30
2022-10-04T10:33:06.472Z,1.40
2022-10-04T10:36:12.929Z,1.40
2022-10-04T10:39:19.938Z,1.30
2022-10-04T10:42:25.928Z,1.30
2022-10-04T10:45:35.003Z,1.00
2022-10-04T10:49:08.504Z,0.80
2022-10-04T11:06:02.065Z,1.40
2022-10-04T11:13:43.156Z,1.10
2022-10-04T11:16:01.512Z,1.60
2022-10-04T11:20:07.973Z,0.90
2022-10-04T11:24:29.964Z,1.10
2022-10-04T11:30:40.926Z,1.20
2022-10-04T11:42:32.294Z,1.30
2022-10-04T11:45:45.128Z,1.10
2022-10-04T11:48:38.250Z,1.30
2022-10-04T11:52:02.103Z,1.20
2022-10-04T11:55:42.505Z,1.20
2022-10-04T11:59:09.608Z,1.10
2022-10-04T12:01:39.527Z,1.00
2022-10-04T12:05:45.276Z,1.00
2022-10-04T12:12:46.974Z,0.80
2022-10-04T12:15:50.614Z,1.20
2022-10-04T12:20:11.230Z,1.30
2022-10-04T12:54:27.995Z,1.00
2022-10-04T12:57:24.499Z,1.00
2022-10-04T13:00:18.070Z,0.80
2022-10-04T13:03:08.215Z,0.90
2022-10-04T13:05:43.614Z,0.60
2022-10-04T13:12:08.945Z,0.80
2022-10-04T13:17:23.362Z,1.20
2022-10-04T13:21:52.368Z,0.70
2022-10-04T13:52:09.826Z,1.00
2022-10-04T14:01:28.549Z,0.90
2022-10-04T14:10:35.763Z,1.40
2022-10-04T14:13:49.565Z,0.80
2022-10-04T14:17:46.118Z,1.20
2022-10-04T14:21:19.377Z,1.20
2022-10-04T14:25:05.253Z,0.80
2022-10-04T14:51:59.766Z,1.30
2022-10-04T17:36:35.714Z,3.20
2022-10-04T18:04:14.811Z,10.50
2022-10-04T18:06:57.140Z,11.00
2022-10-04T18:10:03.062Z,10.00
2022-10-04T18:13:02.924Z,8.90
2022-10-04T18:16:16.601Z,8.90
2022-10-04T18:21:17.758Z,6.80
2022-10-04T18:23:57.778Z,5.60
2022-10-04T18:26:32.256Z,5.40
2022-10-04T18:29:09.236Z,5.40
2022-10-04T18:31:38.472Z,5.00
2022-10-04T18:34:27.791Z,5.20
2022-10-04T18:37:27.880Z,4.90
2022-10-04T18:40:28.588Z,5.60
2022-10-04T18:43:30.282Z,4.80
2022-10-04T18:46:24.805Z,4.40
2022-10-04T18:49:24.711Z,4.20
2022-10-04T18:52:08.813Z,4.30
2022-10-04T18:54:59.797Z,4.10
2022-10-04T18:57:59.338Z,4.10
2022-10-04T19:00:56.354Z,4.20
2022-10-04T19:03:44.942Z,4.50
2022-10-04T19:06:33.701Z,4.50
2022-10-04T19:09:30.671Z,5.00
2022-10-04T19:12:11.068Z,4.30
2022-10-04T19:14:53.909Z,4.10
2022-10-04T19:17:56.634Z,4.60
2022-10-04T19:20:41.533Z,4.70
2022-10-04T19:23:27.732Z,4.40
2022-10-04T19:26:32.880Z,3.80
2022-10-04T19:29:25.901Z,4.80
2022-10-04T19:32:21.440Z,3.80
2022-10-04T19:35:31.015Z,4.20
2022-10-04T19:38:05.836Z,5.10
2022-10-04T19:41:14.672Z,4.80
2022-10-04T19:44:05.920Z,5.20
2022-10-04T19:46:34.593Z,4.70
2022-10-04T19:49:13.800Z,4.90
2022-10-04T19:51:50.367Z,4.40
2022-10-04T19:54:24.524Z,5.40
2022-10-04T19:56:54.593Z,5.20
2022-10-04T19:59:35.259Z,4.90
2022-10-04T20:02:02.618Z,6.50
2022-10-04T20:04:37.650Z,7.00
2022-10-04T20:07:22.219Z,7.30
2022-10-04T20:10:07.863Z,6.70
2022-10-04T20:12:44.542Z,8.70
2022-10-04T20:15:34.159Z,8.40
2022-10-04T20:18:02.567Z,6.40
2022-10-04T20:20:41.363Z,7.20
2022-10-04T20:23:09.615Z,6.80
2022-10-04T20:25:46.167Z,7.00
2022-10-04T20:28:28.475Z,7.10
2022-10-04T20:30:57.791Z,7.70
2022-10-04T20:33:34.425Z,8.90
2022-10-04T20:36:21.154Z,10.50
2022-10-04T20:38:54.311Z,8.60
2022-10-04T20:42:03.047Z,11.20
2022-10-04T20:45:10.405Z,10.90
2022-10-04T20:47:39.152Z,9.90
2022-10-04T20:50:14.504Z,10.10
2022-10-04T20:52:47.362Z,11.00
2022-10-04T20:55:20.143Z,10.80
2022-10-04T20:57:47.147Z,9.90
2022-10-04T21:00:22.802Z,10.70
2022-10-04T21:02:49.567Z,11.00
2022-10-04T21:05:26.602Z,12.70
2022-10-04T21:08:13.598Z,14.30
2022-10-04T21:11:01.642Z,13.30
2022-10-04T21:13:51.651Z,13.30
2022-10-04T21:16:39.449Z,15.20
2022-10-04T21:19:31.653Z,15.00
2022-10-04T21:22:06.018Z,16.00
2022-10-04T21:24:40.562Z,15.40
2022-10-04T21:27:10.356Z,14.70
2022-10-04T21:29:38.417Z,13.50
2022-10-04T21:32:05.514Z,14.10
2022-10-04T21:34:52.608Z,13.30
2022-10-04T21:37:20.619Z,14.30
2022-10-04T21:39:47.954Z,15.80
2022-10-04T21:42:14.815Z,15.10
2022-10-04T21:44:42.079Z,15.00
2022-10-04T21:47:09.912Z,15.40
2022-10-04T21:49:36.939Z,15.70
2022-10-04T21:52:03.995Z,16.50
2022-10-04T21:54:31.126Z,15.40
2022-10-04T21:56:57.691Z,14.30
2022-10-04T21:59:25.609Z,16.10
2022-10-04T22:01:53.288Z,15.90
2022-10-04T22:04:19.830Z,14.70
2022-10-04T22:06:46.649Z,13.90
2022-10-04T22:09:14.474Z,13.30
2022-10-04T22:11:41.450Z,13.60
2022-10-04T22:14:08.014Z,13.50
2022-10-04T22:16:38.356Z,13.30
2022-10-04T22:19:05.035Z,13.10
2022-10-04T22:21:34.425Z,13.20
2022-10-04T22:24:17.100Z,13.00
2022-10-04T22:26:45.555Z,11.40
2022-10-04T22:29:14.744Z,12.30
2022-10-04T22:31:44.890Z,10.90
2022-10-04T22:34:19.251Z,12.60
2022-10-04T22:36:47.467Z,14.30
2022-10-04T22:39:16.587Z,12.00
2022-10-04T22:41:45.575Z,12.60
2022-10-04T22:44:21.477Z,11.90
2022-10-04T22:46:55.553Z,12.30
2022-10-04T22:49:29.552Z,13.00
2022-10-04T22:51:58.861Z,11.90
2022-10-04T22:54:31.069Z,12.70
2022-10-04T22:56:58.793Z,11.70
2022-10-04T22:59:37.863Z,12.20
2022-10-04T23:02:31.014Z,13.00
2022-10-04T23:05:01.265Z,12.10
2022-10-04T23:07:28.491Z,13.70
2022-10-04T23:09:55.349Z,12.30
2022-10-04T23:12:22.708Z,12.90
2022-10-04T23:14:49.312Z,12.00
2022-10-04T23:17:29.544Z,12.70
2022-10-04T23:20:11.976Z,13.20
2022-10-04T23:22:49.122Z,12.30
2022-10-04T23:25:22.284Z,12.40
2022-10-04T23:27:49.883Z,12.60
2022-10-04T23:30:20.626Z,12.80
2022-10-04T23:32:49.998Z,13.60
2022-10-04T23:35:23.397Z,11.90
2022-10-04T23:37:51.245Z,13.10
2022-10-04T23:40:23.292Z,13.00
2022-10-04T23:42:54.686Z,12.90
2022-10-04T23:45:23.273Z,13.60
2022-10-04T23:47:53.047Z,12.80
2022-10-04T23:50:34.456Z,11.60
2022-10-04T23:53:04.219Z,12.70
2022-10-04T23:55:34.514Z,13.10
2022-10-04T23:58:01.621Z,14.20
